sensor_id;sensor_type;location;lat;lon;timestamp;P1;durP1;ratioP1;P2;durP2;ratioP2
64826;SDS011;51265;53.972;12.286;2023-02-01T00:00:24;14.65;;;2.00;;
64826;SDS011;51265;53.972;12.286;2023-02-01T00:02:50;17.85;;;3.10;;
64826;SDS011;51265;53.972;12.286;2023-02-01T00:05:16;20.27;;;2.53;;
64826;SDS011;51265;53.972;12.286;2023-02-01T00:07:44;10.60;;;2.05;;
64826;SDS011;51265;53.972;12.286;2023-02-01T00:10:13;11.35;;;2.60;;
64826;SDS011;51265;53.972;12.286;2023-02-01T00:12:39;16.67;;;2.10;;
64826;SDS011;51265;53.972;12.286;2023-02-01T00:15:05;11.40;;;1.98;;
64826;SDS011;51265;53.972;12.286;2023-02-01T00:17:31;10.40;;;1.70;;
64826;SDS011;51265;53.972;12.286;2023-02-01T00:19:58;15.93;;;2.67;;
64826;SDS011;51265;53.972;12.286;2023-02-01T00:22:24;13.75;;;2.22;;
64826;SDS011;51265;53.972;12.286;2023-02-01T00:24:50;16.83;;;2.58;;
64826;SDS011;51265;53.972;12.286;2023-02-01T00:27:16;16.33;;;3.33;;
64826;SDS011;51265;53.972;12.286;2023-02-01T00:29:46;16.38;;;1.92;;
64826;SDS011;51265;53.972;12.286;2023-02-01T00:32:12;22.23;;;4.07;;
64826;SDS011;51265;53.972;12.286;2023-02-01T00:34:38;14.93;;;2.58;;
64826;SDS011;51265;53.972;12.286;2023-02-01T00:37:05;23.20;;;2.83;;
64826;SDS011;51265;53.972;12.286;2023-02-01T00:39:31;21.17;;;3.08;;
64826;SDS011;51265;53.972;12.286;2023-02-01T00:41:57;23.08;;;2.65;;
64826;SDS011;51265;53.972;12.286;2023-02-01T00:44:25;19.33;;;3.03;;
64826;SDS011;51265;53.972;12.286;2023-02-01T00:46:52;22.05;;;3.15;;
64826;SDS011;51265;53.972;12.286;2023-02-01T00:49:19;29.42;;;3.90;;
64826;SDS011;51265;53.972;12.286;2023-02-01T00:51:45;17.60;;;2.80;;
64826;SDS011;51265;53.972;12.286;2023-02-01T00:54:11;23.33;;;3.35;;
64826;SDS011;51265;53.972;12.286;2023-02-01T00:56:37;17.55;;;3.50;;
64826;SDS011;51265;53.972;12.286;2023-02-01T00:59:03;24.55;;;3.30;;
64826;SDS011;51265;53.972;12.286;2023-02-01T01:01:30;21.15;;;3.80;;
64826;SDS011;51265;53.972;12.286;2023-02-01T01:03:57;20.48;;;3.30;;
64826;SDS011;51265;53.972;12.286;2023-02-01T01:06:28;15.65;;;2.08;;
64826;SDS011;51265;53.972;12.286;2023-02-01T01:08:57;16.95;;;2.58;;
64826;SDS011;51265;53.972;12.286;2023-02-01T01:11:26;16.17;;;2.45;;
64826;SDS011;51265;53.972;12.286;2023-02-01T01:13:54;15.23;;;2.25;;
64826;SDS011;51265;53.972;12.286;2023-02-01T01:16:22;14.85;;;3.15;;
64826;SDS011;51265;53.972;12.286;2023-02-01T01:18:50;14.23;;;2.03;;
64826;SDS011;51265;53.972;12.286;2023-02-01T01:21:17;23.23;;;3.75;;
64826;SDS011;51265;53.972;12.286;2023-02-01T01:23:44;10.18;;;1.83;;
64826;SDS011;51265;53.972;12.286;2023-02-01T01:26:13;23.98;;;3.08;;
64826;SDS011;51265;53.972;12.286;2023-02-01T01:28:45;18.88;;;2.30;;
64826;SDS011;51265;53.972;12.286;2023-02-01T01:31:12;20.75;;;2.50;;
64826;SDS011;51265;53.972;12.286;2023-02-01T01:33:40;15.85;;;3.05;;
64826;SDS011;51265;53.972;12.286;2023-02-01T01:36:08;18.25;;;2.28;;
64826;SDS011;51265;53.972;12.286;2023-02-01T01:38:37;14.05;;;2.05;;
64826;SDS011;51265;53.972;12.286;2023-02-01T01:41:08;12.57;;;2.08;;
64826;SDS011;51265;53.972;12.286;2023-02-01T01:43:45;16.38;;;3.25;;
64826;SDS011;51265;53.972;12.286;2023-02-01T01:46:15;17.95;;;2.35;;
64826;SDS011;51265;53.972;12.286;2023-02-01T01:48:43;16.88;;;2.42;;
64826;SDS011;51265;53.972;12.286;2023-02-01T01:51:10;22.70;;;2.55;;
64826;SDS011;51265;53.972;12.286;2023-02-01T01:53:53;21.73;;;3.00;;
64826;SDS011;51265;53.972;12.286;2023-02-01T01:56:23;12.75;;;1.65;;
64826;SDS011;51265;53.972;12.286;2023-02-01T01:58:52;18.48;;;2.00;;
64826;SDS011;51265;53.972;12.286;2023-02-01T02:01:19;20.58;;;3.35;;
64826;SDS011;51265;53.972;12.286;2023-02-01T02:03:45;16.85;;;4.05;;
64826;SDS011;51265;53.972;12.286;2023-02-01T02:06:20;18.23;;;2.47;;
64826;SDS011;51265;53.972;12.286;2023-02-01T02:08:53;16.67;;;2.78;;
64826;SDS011;51265;53.972;12.286;2023-02-01T02:11:19;14.82;;;2.30;;
64826;SDS011;51265;53.972;12.286;2023-02-01T02:13:46;18.33;;;2.88;;
64826;SDS011;51265;53.972;12.286;2023-02-01T02:25:16;15.85;;;2.78;;
64826;SDS011;51265;53.972;12.286;2023-02-01T02:33:41;14.65;;;2.67;;
64826;SDS011;51265;53.972;12.286;2023-02-01T02:36:21;10.60;;;1.65;;
64826;SDS011;51265;53.972;12.286;2023-02-01T02:38:55;14.95;;;2.22;;
64826;SDS011;51265;53.972;12.286;2023-02-01T02:44:49;14.05;;;1.98;;
64826;SDS011;51265;53.972;12.286;2023-02-01T02:50:34;7.53;;;1.50;;
64826;SDS011;51265;53.972;12.286;2023-02-01T02:53:34;8.18;;;1.35;;
64826;SDS011;51265;53.972;12.286;2023-02-01T02:56:24;15.60;;;2.33;;
64826;SDS011;51265;53.972;12.286;2023-02-01T02:59:11;6.53;;;0.90;;
64826;SDS011;51265;53.972;12.286;2023-02-01T03:01:58;5.15;;;0.98;;
64826;SDS011;51265;53.972;12.286;2023-02-01T03:04:43;5.65;;;0.85;;
64826;SDS011;51265;53.972;12.286;2023-02-01T03:07:14;6.50;;;0.68;;
64826;SDS011;51265;53.972;12.286;2023-02-01T03:10:05;7.28;;;1.60;;
64826;SDS011;51265;53.972;12.286;2023-02-01T03:12:37;4.18;;;0.47;;
64826;SDS011;51265;53.972;12.286;2023-02-01T03:15:35;11.80;;;1.45;;
64826;SDS011;51265;53.972;12.286;2023-02-01T03:18:11;11.18;;;1.17;;
64826;SDS011;51265;53.972;12.286;2023-02-01T03:20:43;9.60;;;1.33;;
64826;SDS011;51265;53.972;12.286;2023-02-01T03:23:12;9.95;;;1.65;;
64826;SDS011;51265;53.972;12.286;2023-02-01T03:25:41;8.43;;;1.27;;
64826;SDS011;51265;53.972;12.286;2023-02-01T03:28:08;15.27;;;2.35;;
64826;SDS011;51265;53.972;12.286;2023-02-01T03:30:37;10.82;;;1.52;;
64826;SDS011;51265;53.972;12.286;2023-02-01T03:33:16;16.65;;;2.00;;
64826;SDS011;51265;53.972;12.286;2023-02-01T03:36:02;10.93;;;1.67;;
64826;SDS011;51265;53.972;12.286;2023-02-01T03:41:21;25.80;;;3.13;;
64826;SDS011;51265;53.972;12.286;2023-02-01T03:43:59;23.30;;;3.45;;
64826;SDS011;51265;53.972;12.286;2023-02-01T03:46:37;22.42;;;3.03;;
64826;SDS011;51265;53.972;12.286;2023-02-01T03:49:16;20.63;;;2.30;;
64826;SDS011;51265;53.972;12.286;2023-02-01T03:51:47;21.27;;;2.78;;
64826;SDS011;51265;53.972;12.286;2023-02-01T03:54:17;21.30;;;2.75;;
64826;SDS011;51265;53.972;12.286;2023-02-01T03:56:44;17.50;;;2.33;;
64826;SDS011;51265;53.972;12.286;2023-02-01T03:59:13;22.27;;;2.97;;
64826;SDS011;51265;53.972;12.286;2023-02-01T04:01:41;16.40;;;2.35;;
64826;SDS011;51265;53.972;12.286;2023-02-01T04:04:17;26.77;;;2.60;;
64826;SDS011;51265;53.972;12.286;2023-02-01T04:06:50;20.88;;;2.15;;
64826;SDS011;51265;53.972;12.286;2023-02-01T04:09:17;23.20;;;2.92;;
64826;SDS011;51265;53.972;12.286;2023-02-01T04:11:43;19.77;;;3.42;;
64826;SDS011;51265;53.972;12.286;2023-02-01T04:14:10;21.80;;;3.65;;
64826;SDS011;51265;53.972;12.286;2023-02-01T04:16:36;23.27;;;3.55;;
64826;SDS011;51265;53.972;12.286;2023-02-01T04:19:02;23.85;;;3.47;;
64826;SDS011;51265;53.972;12.286;2023-02-01T04:21:28;31.13;;;5.70;;
64826;SDS011;51265;53.972;12.286;2023-02-01T04:23:56;33.45;;;3.85;;
64826;SDS011;51265;53.972;12.286;2023-02-01T04:26:22;30.23;;;3.13;;
64826;SDS011;51265;53.972;12.286;2023-02-01T04:28:48;27.15;;;3.47;;
64826;SDS011;51265;53.972;12.286;2023-02-01T04:31:15;23.70;;;3.28;;
64826;SDS011;51265;53.972;12.286;2023-02-01T04:33:42;38.05;;;3.67;;
64826;SDS011;51265;53.972;12.286;2023-02-01T04:36:09;27.75;;;3.40;;
64826;SDS011;51265;53.972;12.286;2023-02-01T04:38:35;24.80;;;3.13;;
64826;SDS011;51265;53.972;12.286;2023-02-01T04:41:02;31.20;;;4.00;;
64826;SDS011;51265;53.972;12.286;2023-02-01T04:43:28;26.27;;;3.67;;
64826;SDS011;51265;53.972;12.286;2023-02-01T04:45:54;28.30;;;4.03;;
64826;SDS011;51265;53.972;12.286;2023-02-01T04:48:20;25.67;;;3.80;;
64826;SDS011;51265;53.972;12.286;2023-02-01T04:50:48;30.70;;;4.13;;
64826;SDS011;51265;53.972;12.286;2023-02-01T04:53:14;30.73;;;4.65;;
64826;SDS011;51265;53.972;12.286;2023-02-01T04:55:41;24.98;;;3.30;;
64826;SDS011;51265;53.972;12.286;2023-02-01T04:58:08;25.58;;;4.00;;
64826;SDS011;51265;53.972;12.286;2023-02-01T05:00:35;36.45;;;4.28;;
64826;SDS011;51265;53.972;12.286;2023-02-01T05:03:02;24.67;;;4.13;;
64826;SDS011;51265;53.972;12.286;2023-02-01T05:05:28;40.92;;;4.30;;
64826;SDS011;51265;53.972;12.286;2023-02-01T05:07:55;34.22;;;4.80;;
64826;SDS011;51265;53.972;12.286;2023-02-01T05:10:21;32.22;;;4.05;;
64826;SDS011;51265;53.972;12.286;2023-02-01T05:12:48;22.75;;;3.72;;
64826;SDS011;51265;53.972;12.286;2023-02-01T05:15:33;27.55;;;4.50;;
64826;SDS011;51265;53.972;12.286;2023-02-01T05:17:59;21.83;;;3.80;;
64826;SDS011;51265;53.972;12.286;2023-02-01T05:20:25;27.02;;;4.25;;
64826;SDS011;51265;53.972;12.286;2023-02-01T05:22:51;24.63;;;4.35;;
64826;SDS011;51265;53.972;12.286;2023-02-01T05:25:17;32.28;;;4.95;;
64826;SDS011;51265;53.972;12.286;2023-02-01T05:27:44;32.67;;;5.20;;
64826;SDS011;51265;53.972;12.286;2023-02-01T05:30:11;36.95;;;5.18;;
64826;SDS011;51265;53.972;12.286;2023-02-01T05:32:37;30.38;;;4.22;;
64826;SDS011;51265;53.972;12.286;2023-02-01T05:35:04;28.55;;;4.70;;
64826;SDS011;51265;53.972;12.286;2023-02-01T05:37:30;24.80;;;4.25;;
64826;SDS011;51265;53.972;12.286;2023-02-01T05:39:57;30.30;;;4.72;;
64826;SDS011;51265;53.972;12.286;2023-02-01T05:42:23;31.15;;;4.38;;
64826;SDS011;51265;53.972;12.286;2023-02-01T05:44:49;33.10;;;4.75;;
64826;SDS011;51265;53.972;12.286;2023-02-01T05:47:15;31.75;;;4.45;;
64826;SDS011;51265;53.972;12.286;2023-02-01T05:49:41;17.75;;;3.25;;
64826;SDS011;51265;53.972;12.286;2023-02-01T05:52:07;23.52;;;4.68;;
64826;SDS011;51265;53.972;12.286;2023-02-01T05:54:33;21.58;;;3.42;;
64826;SDS011;51265;53.972;12.286;2023-02-01T05:57:00;34.90;;;4.07;;
64826;SDS011;51265;53.972;12.286;2023-02-01T05:59:26;17.23;;;2.92;;
64826;SDS011;51265;53.972;12.286;2023-02-01T06:01:52;14.30;;;2.40;;
64826;SDS011;51265;53.972;12.286;2023-02-01T06:04:18;16.90;;;2.95;;
64826;SDS011;51265;53.972;12.286;2023-02-01T06:06:44;12.93;;;1.98;;
64826;SDS011;51265;53.972;12.286;2023-02-01T06:09:10;16.10;;;2.33;;
64826;SDS011;51265;53.972;12.286;2023-02-01T06:11:37;13.05;;;2.00;;
64826;SDS011;51265;53.972;12.286;2023-02-01T06:14:03;14.88;;;2.53;;
64826;SDS011;51265;53.972;12.286;2023-02-01T06:16:29;10.00;;;1.75;;
64826;SDS011;51265;53.972;12.286;2023-02-01T06:18:55;14.02;;;2.13;;
64826;SDS011;51265;53.972;12.286;2023-02-01T06:21:21;14.40;;;1.90;;
64826;SDS011;51265;53.972;12.286;2023-02-01T06:23:51;10.25;;;1.90;;
64826;SDS011;51265;53.972;12.286;2023-02-01T06:26:20;8.68;;;2.58;;
64826;SDS011;51265;53.972;12.286;2023-02-01T06:28:46;8.10;;;1.70;;
64826;SDS011;51265;53.972;12.286;2023-02-01T06:31:13;16.52;;;2.90;;
64826;SDS011;51265;53.972;12.286;2023-02-01T06:33:39;9.50;;;2.00;;
64826;SDS011;51265;53.972;12.286;2023-02-01T06:36:06;4.15;;;1.40;;
64826;SDS011;51265;53.972;12.286;2023-02-01T06:38:33;9.95;;;1.38;;
64826;SDS011;51265;53.972;12.286;2023-02-01T06:41:02;9.40;;;1.35;;
64826;SDS011;51265;53.972;12.286;2023-02-01T06:43:29;10.98;;;1.92;;
64826;SDS011;51265;53.972;12.286;2023-02-01T06:45:59;3.88;;;0.98;;
64826;SDS011;51265;53.972;12.286;2023-02-01T06:48:27;8.73;;;1.45;;
64826;SDS011;51265;53.972;12.286;2023-02-01T06:50:54;3.97;;;1.20;;
64826;SDS011;51265;53.972;12.286;2023-02-01T06:53:20;6.97;;;1.65;;
64826;SDS011;51265;53.972;12.286;2023-02-01T06:55:53;6.03;;;1.40;;
64826;SDS011;51265;53.972;12.286;2023-02-01T06:58:21;5.53;;;1.23;;
64826;SDS011;51265;53.972;12.286;2023-02-01T07:00:48;10.63;;;1.23;;
64826;SDS011;51265;53.972;12.286;2023-02-01T07:03:14;7.65;;;1.15;;
64826;SDS011;51265;53.972;12.286;2023-02-01T07:05:40;13.57;;;1.60;;
64826;SDS011;51265;53.972;12.286;2023-02-01T07:08:06;7.13;;;1.08;;
64826;SDS011;51265;53.972;12.286;2023-02-01T07:10:34;9.77;;;1.67;;
64826;SDS011;51265;53.972;12.286;2023-02-01T07:13:00;11.00;;;1.45;;
64826;SDS011;51265;53.972;12.286;2023-02-01T07:15:26;4.10;;;0.77;;
64826;SDS011;51265;53.972;12.286;2023-02-01T07:17:56;3.70;;;0.70;;
64826;SDS011;51265;53.972;12.286;2023-02-01T07:20:22;4.28;;;0.90;;
64826;SDS011;51265;53.972;12.286;2023-02-01T07:22:54;11.52;;;1.00;;
64826;SDS011;51265;53.972;12.286;2023-02-01T07:25:20;5.20;;;0.90;;
64826;SDS011;51265;53.972;12.286;2023-02-01T07:27:52;5.90;;;0.73;;
64826;SDS011;51265;53.972;12.286;2023-02-01T07:30:18;7.40;;;1.00;;
64826;SDS011;51265;53.972;12.286;2023-02-01T07:32:44;4.88;;;1.05;;
64826;SDS011;51265;53.972;12.286;2023-02-01T07:35:10;5.30;;;1.00;;
64826;SDS011;51265;53.972;12.286;2023-02-01T07:37:37;3.25;;;0.73;;
64826;SDS011;51265;53.972;12.286;2023-02-01T07:40:04;5.75;;;0.73;;
64826;SDS011;51265;53.972;12.286;2023-02-01T07:42:30;5.80;;;1.38;;
64826;SDS011;51265;53.972;12.286;2023-02-01T07:44:57;7.28;;;0.85;;
64826;SDS011;51265;53.972;12.286;2023-02-01T07:47:23;3.28;;;1.00;;
64826;SDS011;51265;53.972;12.286;2023-02-01T07:49:49;3.78;;;0.70;;
64826;SDS011;51265;53.972;12.286;2023-02-01T07:52:15;7.00;;;1.08;;
64826;SDS011;51265;53.972;12.286;2023-02-01T07:54:41;2.45;;;1.08;;
64826;SDS011;51265;53.972;12.286;2023-02-01T07:57:07;7.43;;;0.93;;
64826;SDS011;51265;53.972;12.286;2023-02-01T07:59:34;4.88;;;1.15;;
64826;SDS011;51265;53.972;12.286;2023-02-01T08:02:01;12.35;;;1.40;;
64826;SDS011;51265;53.972;12.286;2023-02-01T08:04:27;14.63;;;1.98;;
64826;SDS011;51265;53.972;12.286;2023-02-01T08:06:55;6.97;;;1.23;;
64826;SDS011;51265;53.972;12.286;2023-02-01T08:09:21;9.00;;;1.27;;
64826;SDS011;51265;53.972;12.286;2023-02-01T08:11:47;2.80;;;1.00;;
64826;SDS011;51265;53.972;12.286;2023-02-01T08:14:13;14.52;;;1.52;;
64826;SDS011;51265;53.972;12.286;2023-02-01T08:16:39;13.82;;;1.17;;
64826;SDS011;51265;53.972;12.286;2023-02-01T08:19:06;6.65;;;1.00;;
64826;SDS011;51265;53.972;12.286;2023-02-01T08:21:32;4.63;;;0.70;;
64826;SDS011;51265;53.972;12.286;2023-02-01T08:24:05;6.90;;;1.25;;
64826;SDS011;51265;53.972;12.286;2023-02-01T08:26:32;8.20;;;1.10;;
64826;SDS011;51265;53.972;12.286;2023-02-01T08:28:58;9.82;;;1.67;;
64826;SDS011;51265;53.972;12.286;2023-02-01T08:31:27;4.28;;;1.10;;
64826;SDS011;51265;53.972;12.286;2023-02-01T08:33:55;8.70;;;1.25;;
64826;SDS011;51265;53.972;12.286;2023-02-01T08:36:27;7.97;;;1.25;;
64826;SDS011;51265;53.972;12.286;2023-02-01T08:38:55;13.50;;;2.53;;
64826;SDS011;51265;53.972;12.286;2023-02-01T08:41:39;9.45;;;1.77;;
64826;SDS011;51265;53.972;12.286;2023-02-01T08:44:07;9.13;;;1.63;;
64826;SDS011;51265;53.972;12.286;2023-02-01T08:46:53;9.15;;;1.88;;
64826;SDS011;51265;53.972;12.286;2023-02-01T08:49:20;9.90;;;1.30;;
64826;SDS011;51265;53.972;12.286;2023-02-01T08:51:46;11.95;;;1.50;;
64826;SDS011;51265;53.972;12.286;2023-02-01T08:54:15;12.35;;;2.33;;
64826;SDS011;51265;53.972;12.286;2023-02-01T08:56:42;12.55;;;1.75;;
64826;SDS011;51265;53.972;12.286;2023-02-01T08:59:08;13.57;;;1.60;;
64826;SDS011;51265;53.972;12.286;2023-02-01T10:21:22;2.45;;;0.68;;
64826;SDS011;51265;53.972;12.286;2023-02-01T10:26:42;7.32;;;0.70;;
64826;SDS011;51265;53.972;12.286;2023-02-01T10:29:16;7.85;;;1.15;;
64826;SDS011;51265;53.972;12.286;2023-02-01T10:31:45;9.38;;;1.08;;
64826;SDS011;51265;53.972;12.286;2023-02-01T10:36:50;12.43;;;1.38;;
64826;SDS011;51265;53.972;12.286;2023-02-01T10:41:47;23.35;;;2.65;;
64826;SDS011;51265;53.972;12.286;2023-02-01T10:44:17;19.27;;;3.13;;
64826;SDS011;51265;53.972;12.286;2023-02-01T10:46:49;19.52;;;2.63;;
64826;SDS011;51265;53.972;12.286;2023-02-01T10:49:24;21.20;;;2.50;;
64826;SDS011;51265;53.972;12.286;2023-02-01T10:52:11;18.92;;;2.58;;
64826;SDS011;51265;53.972;12.286;2023-02-01T10:54:41;18.02;;;3.28;;
64826;SDS011;51265;53.972;12.286;2023-02-01T10:57:21;17.13;;;2.95;;
64826;SDS011;51265;53.972;12.286;2023-02-01T10:59:51;18.17;;;1.95;;
64826;SDS011;51265;53.972;12.286;2023-02-01T11:02:34;16.90;;;2.20;;
64826;SDS011;51265;53.972;12.286;2023-02-01T11:05:05;25.13;;;3.00;;
64826;SDS011;51265;53.972;12.286;2023-02-01T11:07:38;18.00;;;2.97;;
64826;SDS011;51265;53.972;12.286;2023-02-01T11:10:34;12.32;;;2.70;;
64826;SDS011;51265;53.972;12.286;2023-02-01T11:13:16;23.08;;;2.90;;
64826;SDS011;51265;53.972;12.286;2023-02-01T11:15:44;11.77;;;2.03;;
64826;SDS011;51265;53.972;12.286;2023-02-01T11:18:16;21.30;;;2.55;;
64826;SDS011;51265;53.972;12.286;2023-02-01T11:20:44;20.33;;;2.60;;
64826;SDS011;51265;53.972;12.286;2023-02-01T11:23:18;16.42;;;2.67;;
64826;SDS011;51265;53.972;12.286;2023-02-01T11:25:51;14.77;;;2.08;;
64826;SDS011;51265;53.972;12.286;2023-02-01T11:28:20;22.27;;;3.08;;
64826;SDS011;51265;53.972;12.286;2023-02-01T11:30:50;22.65;;;2.70;;
64826;SDS011;51265;53.972;12.286;2023-02-01T11:33:22;22.95;;;2.75;;
64826;SDS011;51265;53.972;12.286;2023-02-01T11:35:53;29.13;;;2.78;;
64826;SDS011;51265;53.972;12.286;2023-02-01T11:40:48;18.63;;;3.20;;
64826;SDS011;51265;53.972;12.286;2023-02-01T11:43:26;20.25;;;2.80;;
64826;SDS011;51265;53.972;12.286;2023-02-01T11:45:58;26.17;;;3.00;;
64826;SDS011;51265;53.972;12.286;2023-02-01T11:48:26;17.67;;;2.60;;
64826;SDS011;51265;53.972;12.286;2023-02-01T11:53:55;15.73;;;2.83;;
64826;SDS011;51265;53.972;12.286;2023-02-01T11:59:19;14.55;;;2.25;;
64826;SDS011;51265;53.972;12.286;2023-02-01T12:07:36;17.25;;;2.17;;
64826;SDS011;51265;53.972;12.286;2023-02-01T12:18:57;12.60;;;1.25;;
64826;SDS011;51265;53.972;12.286;2023-02-01T12:34:45;8.75;;;1.48;;
64826;SDS011;51265;53.972;12.286;2023-02-01T12:45:58;8.95;;;1.60;;
64826;SDS011;51265;53.972;12.286;2023-02-01T12:51:07;13.98;;;1.58;;
64826;SDS011;51265;53.972;12.286;2023-02-01T12:56:36;7.40;;;1.90;;
64826;SDS011;51265;53.972;12.286;2023-02-01T12:59:27;7.30;;;1.88;;
64826;SDS011;51265;53.972;12.286;2023-02-01T13:02:01;10.73;;;2.25;;
64826;SDS011;51265;53.972;12.286;2023-02-01T13:04:43;22.13;;;3.25;;
64826;SDS011;51265;53.972;12.286;2023-02-01T13:07:20;21.48;;;2.53;;
64826;SDS011;51265;53.972;12.286;2023-02-01T13:09:55;18.27;;;2.72;;
64826;SDS011;51265;53.972;12.286;2023-02-01T13:15:09;19.23;;;4.53;;
64826;SDS011;51265;53.972;12.286;2023-02-01T13:17:42;13.95;;;2.55;;
64826;SDS011;51265;53.972;12.286;2023-02-01T13:23:11;15.85;;;1.75;;
64826;SDS011;51265;53.972;12.286;2023-02-01T13:25:50;18.27;;;2.40;;
64826;SDS011;51265;53.972;12.286;2023-02-01T13:28:20;12.60;;;1.80;;
64826;SDS011;51265;53.972;12.286;2023-02-01T13:42:41;11.50;;;1.90;;
64826;SDS011;51265;53.972;12.286;2023-02-01T13:45:14;12.90;;;1.85;;
64826;SDS011;51265;53.972;12.286;2023-02-01T13:47:44;11.75;;;1.70;;
64826;SDS011;51265;53.972;12.286;2023-02-01T13:50:18;2.25;;;0.40;;
64826;SDS011;51265;53.972;12.286;2023-02-01T13:52:55;1.63;;;0.38;;
64826;SDS011;51265;53.972;12.286;2023-02-01T13:55:32;2.05;;;0.20;;
64826;SDS011;51265;53.972;12.286;2023-02-01T14:03:44;2.85;;;0.60;;
64826;SDS011;51265;53.972;12.286;2023-02-01T14:09:10;2.97;;;0.52;;
64826;SDS011;51265;53.972;12.286;2023-02-01T14:11:46;3.58;;;0.65;;
64826;SDS011;51265;53.972;12.286;2023-02-01T14:16:41;1.02;;;0.30;;
64826;SDS011;51265;53.972;12.286;2023-02-01T14:19:08;0.73;;;0.30;;
64826;SDS011;51265;53.972;12.286;2023-02-01T14:21:56;3.65;;;0.40;;
64826;SDS011;51265;53.972;12.286;2023-02-01T14:24:41;1.27;;;0.38;;
64826;SDS011;51265;53.972;12.286;2023-02-01T14:29:43;2.88;;;0.40;;
64826;SDS011;51265;53.972;12.286;2023-02-01T14:32:18;1.92;;;0.60;;
64826;SDS011;51265;53.972;12.286;2023-02-01T14:42:20;3.83;;;0.73;;
64826;SDS011;51265;53.972;12.286;2023-02-01T14:44:51;4.70;;;0.90;;
64826;SDS011;51265;53.972;12.286;2023-02-01T14:49:52;3.60;;;0.70;;
64826;SDS011;51265;53.972;12.286;2023-02-01T14:52:23;8.43;;;0.73;;
64826;SDS011;51265;53.972;12.286;2023-02-01T14:54:57;8.93;;;1.08;;
64826;SDS011;51265;53.972;12.286;2023-02-01T14:57:33;7.65;;;0.80;;
64826;SDS011;51265;53.972;12.286;2023-02-01T15:02:50;5.80;;;0.50;;
64826;SDS011;51265;53.972;12.286;2023-02-01T15:05:29;5.38;;;0.63;;
64826;SDS011;51265;53.972;12.286;2023-02-01T15:08:00;6.18;;;0.80;;
64826;SDS011;51265;53.972;12.286;2023-02-01T15:10:39;6.78;;;0.70;;
64826;SDS011;51265;53.972;12.286;2023-02-01T15:13:19;8.23;;;0.52;;
64826;SDS011;51265;53.972;12.286;2023-02-01T15:16:03;8.57;;;0.90;;
64826;SDS011;51265;53.972;12.286;2023-02-01T15:18:31;10.15;;;1.10;;
64826;SDS011;51265;53.972;12.286;2023-02-01T15:20:59;7.82;;;0.80;;
64826;SDS011;51265;53.972;12.286;2023-02-01T15:23:27;4.75;;;0.68;;
64826;SDS011;51265;53.972;12.286;2023-02-01T15:25:54;12.15;;;1.20;;
64826;SDS011;51265;53.972;12.286;2023-02-01T15:28:21;14.75;;;0.95;;
64826;SDS011;51265;53.972;12.286;2023-02-01T15:31:02;5.32;;;0.80;;
64826;SDS011;51265;53.972;12.286;2023-02-01T15:33:30;5.60;;;0.90;;
64826;SDS011;51265;53.972;12.286;2023-02-01T15:36:07;11.32;;;1.10;;
64826;SDS011;51265;53.972;12.286;2023-02-01T15:38:44;6.15;;;1.00;;
64826;SDS011;51265;53.972;12.286;2023-02-01T15:41:17;10.57;;;1.25;;
64826;SDS011;51265;53.972;12.286;2023-02-01T15:49:02;5.53;;;0.98;;
64826;SDS011;51265;53.972;12.286;2023-02-01T15:51:29;9.55;;;1.65;;
64826;SDS011;51265;53.972;12.286;2023-02-01T15:53:59;14.02;;;1.38;;
64826;SDS011;51265;53.972;12.286;2023-02-01T15:56:29;7.20;;;0.80;;
64826;SDS011;51265;53.972;12.286;2023-02-01T15:59:00;17.45;;;2.30;;
64826;SDS011;51265;53.972;12.286;2023-02-01T16:01:28;9.32;;;0.93;;
64826;SDS011;51265;53.972;12.286;2023-02-01T16:04:02;8.45;;;1.13;;
64826;SDS011;51265;53.972;12.286;2023-02-01T16:06:44;9.67;;;0.83;;
64826;SDS011;51265;53.972;12.286;2023-02-01T16:09:13;7.35;;;1.25;;
64826;SDS011;51265;53.972;12.286;2023-02-01T16:11:41;8.18;;;0.90;;
64826;SDS011;51265;53.972;12.286;2023-02-01T16:14:18;14.65;;;1.10;;
64826;SDS011;51265;53.972;12.286;2023-02-01T16:16:44;16.73;;;2.78;;
64826;SDS011;51265;53.972;12.286;2023-02-01T16:19:10;9.23;;;1.38;;
64826;SDS011;51265;53.972;12.286;2023-02-01T16:21:36;16.73;;;1.67;;
64826;SDS011;51265;53.972;12.286;2023-02-01T16:24:03;6.18;;;1.73;;
64826;SDS011;51265;53.972;12.286;2023-02-01T16:26:30;8.73;;;1.60;;
64826;SDS011;51265;53.972;12.286;2023-02-01T16:28:57;6.85;;;1.52;;
64826;SDS011;51265;53.972;12.286;2023-02-01T16:31:26;9.10;;;1.80;;
64826;SDS011;51265;53.972;12.286;2023-02-01T16:33:54;7.65;;;1.70;;
64826;SDS011;51265;53.972;12.286;2023-02-01T16:36:21;14.80;;;2.05;;
64826;SDS011;51265;53.972;12.286;2023-02-01T16:38:48;13.77;;;1.95;;
64826;SDS011;51265;53.972;12.286;2023-02-01T16:41:16;10.10;;;2.00;;
64826;SDS011;51265;53.972;12.286;2023-02-01T16:43:43;17.48;;;2.25;;
64826;SDS011;51265;53.972;12.286;2023-02-01T16:46:12;8.75;;;2.20;;
64826;SDS011;51265;53.972;12.286;2023-02-01T16:48:54;20.38;;;3.33;;
64826;SDS011;51265;53.972;12.286;2023-02-01T16:51:23;11.75;;;2.10;;
64826;SDS011;51265;53.972;12.286;2023-02-01T16:53:59;11.65;;;2.60;;
64826;SDS011;51265;53.972;12.286;2023-02-01T16:56:30;20.83;;;2.40;;
64826;SDS011;51265;53.972;12.286;2023-02-01T16:58:58;17.52;;;2.35;;
64826;SDS011;51265;53.972;12.286;2023-02-01T17:01:45;24.83;;;4.03;;
64826;SDS011;51265;53.972;12.286;2023-02-01T17:04:11;12.88;;;2.90;;
64826;SDS011;51265;53.972;12.286;2023-02-01T17:06:37;13.40;;;3.08;;
64826;SDS011;51265;53.972;12.286;2023-02-01T17:09:04;20.92;;;2.60;;
64826;SDS011;51265;53.972;12.286;2023-02-01T17:11:31;16.58;;;2.72;;
64826;SDS011;51265;53.972;12.286;2023-02-01T17:14:18;17.90;;;2.50;;
64826;SDS011;51265;53.972;12.286;2023-02-01T17:16:47;14.38;;;2.30;;
64826;SDS011;51265;53.972;12.286;2023-02-01T17:19:16;27.13;;;3.13;;
64826;SDS011;51265;53.972;12.286;2023-02-01T17:21:46;19.95;;;2.13;;
64826;SDS011;51265;53.972;12.286;2023-02-01T17:24:17;25.40;;;2.95;;
64826;SDS011;51265;53.972;12.286;2023-02-01T17:26:44;21.70;;;3.17;;
64826;SDS011;51265;53.972;12.286;2023-02-01T17:29:11;17.65;;;2.08;;
64826;SDS011;51265;53.972;12.286;2023-02-01T17:31:39;28.33;;;2.50;;
64826;SDS011;51265;53.972;12.286;2023-02-01T17:34:09;19.45;;;2.80;;
64826;SDS011;51265;53.972;12.286;2023-02-01T17:36:36;19.05;;;2.72;;
64826;SDS011;51265;53.972;12.286;2023-02-01T17:39:04;23.17;;;3.50;;
64826;SDS011;51265;53.972;12.286;2023-02-01T17:41:31;23.00;;;3.17;;
64826;SDS011;51265;53.972;12.286;2023-02-01T17:43:57;32.45;;;3.35;;
64826;SDS011;51265;53.972;12.286;2023-02-01T17:46:23;23.50;;;3.15;;
64826;SDS011;51265;53.972;12.286;2023-02-01T17:48:53;27.25;;;3.35;;
64826;SDS011;51265;53.972;12.286;2023-02-01T17:51:21;32.03;;;4.10;;
64826;SDS011;51265;53.972;12.286;2023-02-01T17:53:48;28.27;;;4.05;;
64826;SDS011;51265;53.972;12.286;2023-02-01T17:56:16;23.08;;;3.47;;
64826;SDS011;51265;53.972;12.286;2023-02-01T17:58:44;29.48;;;3.53;;
64826;SDS011;51265;53.972;12.286;2023-02-01T18:01:14;30.95;;;3.42;;
64826;SDS011;51265;53.972;12.286;2023-02-01T18:03:45;33.85;;;4.10;;
64826;SDS011;51265;53.972;12.286;2023-02-01T18:06:13;19.83;;;3.25;;
64826;SDS011;51265;53.972;12.286;2023-02-01T18:08:41;26.92;;;4.15;;
64826;SDS011;51265;53.972;12.286;2023-02-01T18:11:12;17.38;;;3.40;;
64826;SDS011;51265;53.972;12.286;2023-02-01T18:13:41;27.55;;;3.78;;